sensor_id;sensor_type;location;lat;lon;timestamp;pressure;altitude;pressure_sealevel;temperature;humidity
34506;BME280;20748;42.632;23.198;2023-02-28T00:01:26;92387.88;;;5.64;100.00
34506;BME280;20748;42.632;23.198;2023-02-28T00:03:59;92394.34;;;5.72;100.00
34506;BME280;20748;42.632;23.198;2023-02-28T00:06:32;92390.69;;;5.52;100.00
34506;BME280;20748;42.632;23.198;2023-02-28T00:09:04;92397.91;;;5.40;100.00
34506;BME280;20748;42.632;23.198;2023-02-28T00:11:37;92388.84;;;5.37;100.00
34506;BME280;20748;42.632;23.198;2023-02-28T00:14:09;92398.47;;;5.57;100.00
34506;BME280;20748;42.632;23.198;2023-02-28T00:16:42;92403.16;;;5.66;100.00
34506;BME280;20748;42.632;23.198;2023-02-28T00:19:15;92401.59;;;5.64;100.00
34506;BME280;20748;42.632;23.198;2023-02-28T00:21:47;92407.06;;;5.73;100.00
34506;BME280;20748;42.632;23.198;2023-02-28T00:24:20;92407.31;;;5.82;100.00
34506;BME280;20748;42.632;23.198;2023-02-28T00:26:52;92414.06;;;5.88;100.00
34506;BME280;20748;42.632;23.198;2023-02-28T00:29:24;92413.25;;;5.83;100.00
34506;BME280;20748;42.632;23.198;2023-02-28T00:31:58;92412.22;;;5.84;100.00
34506;BME280;20748;42.632;23.198;2023-02-28T00:34:30;92409.38;;;5.90;100.00
34506;BME280;20748;42.632;23.198;2023-02-28T00:37:03;92404.97;;;5.81;100.00
34506;BME280;20748;42.632;23.198;2023-02-28T00:39:38;92393.75;;;5.33;100.00
34506;BME280;20748;42.632;23.198;2023-02-28T00:42:11;92401.56;;;5.44;100.00
34506;BME280;20748;42.632;23.198;2023-02-28T00:44:43;92406.75;;;5.49;100.00
34506;BME280;20748;42.632;23.198;2023-02-28T00:47:17;92402.09;;;5.56;100.00
34506;BME280;20748;42.632;23.198;2023-02-28T00:49:50;92399.25;;;5.58;100.00
34506;BME280;20748;42.632;23.198;2023-02-28T00:52:22;92396.91;;;5.61;100.00
34506;BME280;20748;42.632;23.198;2023-02-28T00:54:55;92400.03;;;5.63;100.00
34506;BME280;20748;42.632;23.198;2023-02-28T00:57:27;92401.53;;;5.38;100.00
34506;BME280;20748;42.632;23.198;2023-02-28T00:59:59;92403.59;;;5.36;100.00
34506;BME280;20748;42.632;23.198;2023-02-28T01:02:33;92387.81;;;5.43;100.00
34506;BME280;20748;42.632;23.198;2023-02-28T01:05:06;92399.75;;;5.44;100.00
34506;BME280;20748;42.632;23.198;2023-02-28T01:07:38;92395.88;;;5.47;100.00
34506;BME280;20748;42.632;23.198;2023-02-28T01:10:11;92391.47;;;5.47;100.00
34506;BME280;20748;42.632;23.198;2023-02-28T01:12:44;92385.75;;;5.40;100.00
34506;BME280;20748;42.632;23.198;2023-02-28T01:15:16;92385.75;;;5.40;100.00
34506;BME280;20748;42.632;23.198;2023-02-28T01:17:50;92393.50;;;5.35;100.00
34506;BME280;20748;42.632;23.198;2023-02-28T01:20:23;92389.84;;;5.15;100.00
34506;BME280;20748;42.632;23.198;2023-02-28T01:22:55;92390.88;;;5.19;100.00
34506;BME280;20748;42.632;23.198;2023-02-28T01:25:28;92392.19;;;5.27;100.00
34506;BME280;20748;42.632;23.198;2023-02-28T01:28:00;92388.31;;;5.30;100.00
34506;BME280;20748;42.632;23.198;2023-02-28T01:30:33;92393.75;;;5.33;100.00
34506;BME280;20748;42.632;23.198;2023-02-28T01:33:06;92385.22;;;5.28;100.00
34506;BME280;20748;42.632;23.198;2023-02-28T01:35:39;92381.59;;;5.29;100.00
34506;BME280;20748;42.632;23.198;2023-02-28T01:38:11;92389.63;;;5.32;100.00
34506;BME280;20748;42.632;23.198;2023-02-28T01:40:54;92392.19;;;5.27;100.00
34506;BME280;20748;42.632;23.198;2023-02-28T01:43:27;92391.94;;;5.29;100.00
34506;BME280;20748;42.632;23.198;2023-02-28T01:46:00;92392.72;;;5.29;100.00
34506;BME280;20748;42.632;23.198;2023-02-28T01:48:36;92393.53;;;5.40;100.00
34506;BME280;20748;42.632;23.198;2023-02-28T01:51:13;92392.50;;;5.46;100.00
34506;BME280;20748;42.632;23.198;2023-02-28T01:53:49;92393.75;;;5.33;100.00
34506;BME280;20748;42.632;23.198;2023-02-28T01:56:27;92394.56;;;5.39;100.00
34506;BME280;20748;42.632;23.198;2023-02-28T01:59:01;92404.41;;;5.47;100.00
34506;BME280;20748;42.632;23.198;2023-02-28T02:01:34;92400.28;;;5.51;100.00
34506;BME280;20748;42.632;23.198;2023-02-28T02:04:07;92395.09;;;5.51;100.00
34506;BME280;20748;42.632;23.198;2023-02-28T02:06:43;92391.47;;;5.47;100.00
34506;BME280;20748;42.632;23.198;2023-02-28T02:09:16;92397.69;;;5.46;100.00
34506;BME280;20748;42.632;23.198;2023-02-28T02:11:49;92390.69;;;5.47;100.00
34506;BME280;20748;42.632;23.198;2023-02-28T02:14:35;92394.56;;;5.49;100.00
34506;BME280;20748;42.632;23.198;2023-02-28T02:17:21;92397.16;;;5.49;100.00
34506;BME280;20748;42.632;23.198;2023-02-28T02:23:44;92395.34;;;5.50;100.00
34506;BME280;20748;42.632;23.198;2023-02-28T02:26:44;92396.16;;;5.56;100.00
34506;BME280;20748;42.632;23.198;2023-02-28T02:32:47;92397.72;;;5.62;100.00
34506;BME280;20748;42.632;23.198;2023-02-28T02:35:25;92401.31;;;5.66;100.00
34506;BME280;20748;42.632;23.198;2023-02-28T02:38:07;92407.81;;;5.74;100.00
34506;BME280;20748;42.632;23.198;2023-02-28T02:40:45;92406.50;;;5.66;100.00
34506;BME280;20748;42.632;23.198;2023-02-28T02:43:25;92408.06;;;5.67;100.00
34506;BME280;20748;42.632;23.198;2023-02-28T02:46:04;92408.06;;;5.67;100.00
34506;BME280;20748;42.632;23.198;2023-02-28T02:48:40;92415.81;;;5.72;100.00
34506;BME280;20748;42.632;23.198;2023-02-28T02:51:17;92410.13;;;5.70;100.00
34506;BME280;20748;42.632;23.198;2023-02-28T02:53:53;92409.88;;;5.67;100.00
34506;BME280;20748;42.632;23.198;2023-02-28T02:56:28;92411.94;;;5.70;100.00
34506;BME280;20748;42.632;23.198;2023-02-28T02:59:04;92418.69;;;5.71;100.00
34506;BME280;20748;42.632;23.198;2023-02-28T03:01:38;92411.94;;;5.70;100.00
34506;BME280;20748;42.632;23.198;2023-02-28T03:04:17;92417.13;;;5.70;100.00
34506;BME280;20748;42.632;23.198;2023-02-28T03:06:52;92419.47;;;5.71;100.00
34506;BME280;20748;42.632;23.198;2023-02-28T03:09:27;92420.00;;;5.73;100.00
34506;BME280;20748;42.632;23.198;2023-02-28T03:11:59;92417.13;;;5.75;100.00
34506;BME280;20748;42.632;23.198;2023-02-28T03:14:41;92422.84;;;5.77;100.00
34506;BME280;20748;42.632;23.198;2023-02-28T03:17:31;92429.81;;;5.76;100.00
34506;BME280;20748;42.632;23.198;2023-02-28T03:20:15;92424.66;;;5.76;100.00
34506;BME280;20748;42.632;23.198;2023-02-28T03:22:58;92429.31;;;5.80;100.00
34506;BME280;20748;42.632;23.198;2023-02-28T03:25:39;92426.72;;;5.74;100.00
34506;BME280;20748;42.632;23.198;2023-02-28T03:28:19;92436.53;;;5.72;100.00
34506;BME280;20748;42.632;23.198;2023-02-28T03:30:59;92430.06;;;5.75;100.00
34506;BME280;20748;42.632;23.198;2023-02-28T03:33:38;92432.41;;;5.71;100.00
34506;BME280;20748;42.632;23.198;2023-02-28T03:36:13;92437.31;;;5.68;100.00
34506;BME280;20748;42.632;23.198;2023-02-28T03:38:49;92430.59;;;5.67;100.00
34506;BME280;20748;42.632;23.198;2023-02-28T03:41:29;92447.16;;;5.66;100.00
34506;BME280;20748;42.632;23.198;2023-02-28T03:44:07;92445.09;;;5.68;100.00
34506;BME280;20748;42.632;23.198;2023-02-28T03:46:45;92445.81;;;5.53;100.00
34506;BME280;20748;42.632;23.198;2023-02-28T03:49:22;92443.22;;;5.47;100.00
34506;BME280;20748;42.632;23.198;2023-02-28T03:51:57;92443.47;;;5.46;100.00
34506;BME280;20748;42.632;23.198;2023-02-28T03:54:35;92450.97;;;5.47;100.00
34506;BME280;20748;42.632;23.198;2023-02-28T03:57:12;92446.88;;;5.51;100.00
34506;BME280;20748;42.632;23.198;2023-02-28T03:59:47;92442.47;;;5.47;100.00
34506;BME280;20748;42.632;23.198;2023-02-28T04:02:23;92437.28;;;5.42;100.00
34506;BME280;20748;42.632;23.198;2023-02-28T04:04:56;92446.03;;;5.30;100.00
34506;BME280;20748;42.632;23.198;2023-02-28T04:07:29;92454.97;;;5.07;100.00
34506;BME280;20748;42.632;23.198;2023-02-28T04:10:03;92453.31;;;4.80;100.00
34506;BME280;20748;42.632;23.198;2023-02-28T04:12:35;92446.19;;;4.54;100.00
34506;BME280;20748;42.632;23.198;2023-02-28T04:15:08;92445.81;;;4.40;100.00
34506;BME280;20748;42.632;23.198;2023-02-28T04:17:42;92441.13;;;4.32;100.00
34506;BME280;20748;42.632;23.198;2023-02-28T04:20:14;92440.63;;;4.35;100.00
34506;BME280;20748;42.632;23.198;2023-02-28T04:22:47;92445.03;;;4.35;100.00
34506;BME280;20748;42.632;23.198;2023-02-28T04:25:20;92446.06;;;4.39;100.00
34506;BME280;20748;42.632;23.198;2023-02-28T04:27:54;92443.56;;;4.49;100.00
34506;BME280;20748;42.632;23.198;2023-02-28T04:30:26;92442.06;;;4.59;100.00
34506;BME280;20748;42.632;23.198;2023-02-28T04:32:58;92446.97;;;4.60;100.00
34506;BME280;20748;42.632;23.198;2023-02-28T04:35:31;92439.19;;;4.55;100.00
34506;BME280;20748;42.632;23.198;2023-02-28T04:38:04;92442.53;;;4.50;100.00
34506;BME280;20748;42.632;23.198;2023-02-28T04:40:37;92448.72;;;4.49;100.00
34506;BME280;20748;42.632;23.198;2023-02-28T04:43:09;92448.91;;;4.37;100.00
34506;BME280;20748;42.632;23.198;2023-02-28T04:45:42;92448.59;;;4.34;100.00
34506;BME280;20748;42.632;23.198;2023-02-28T04:48:14;92454.81;;;4.33;100.00
34506;BME280;20748;42.632;23.198;2023-02-28T04:50:47;92458.63;;;4.25;100.00
34506;BME280;20748;42.632;23.198;2023-02-28T04:53:19;92456.38;;;4.01;100.00
34506;BME280;20748;42.632;23.198;2023-02-28T04:55:52;92465.03;;;3.89;100.00
34506;BME280;20748;42.632;23.198;2023-02-28T04:58:25;92469.44;;;3.89;100.00
34506;BME280;20748;42.632;23.198;2023-02-28T05:01:02;92473.25;;;3.81;100.00
34506;BME280;20748;42.632;23.198;2023-02-28T05:03:34;92468.09;;;3.81;100.00
34506;BME280;20748;42.632;23.198;2023-02-28T05:06:07;92474.91;;;3.93;100.00
34506;BME280;20748;42.632;23.198;2023-02-28T05:08:40;92468.22;;;3.97;100.00
34506;BME280;20748;42.632;23.198;2023-02-28T05:11:16;92475.53;;;4.05;100.00
34506;BME280;20748;42.632;23.198;2023-02-28T05:13:50;92478.34;;;4.03;100.00
34506;BME280;20748;42.632;23.198;2023-02-28T05:16:22;92477.88;;;4.07;100.00
34506;BME280;20748;42.632;23.198;2023-02-28T05:18:55;92483.06;;;4.12;100.00
34506;BME280;20748;42.632;23.198;2023-02-28T05:21:29;92482.66;;;4.25;100.00
34506;BME280;20748;42.632;23.198;2023-02-28T05:24:04;92482.94;;;4.29;100.00
34506;BME280;20748;42.632;23.198;2023-02-28T05:26:39;92488.31;;;4.22;100.00
34506;BME280;20748;42.632;23.198;2023-02-28T05:29:12;92488.91;;;4.29;100.00
34506;BME280;20748;42.632;23.198;2023-02-28T05:31:44;92494.78;;;4.20;100.00
34506;BME280;20748;42.632;23.198;2023-02-28T05:34:17;92500.25;;;4.28;100.00
34506;BME280;20748;42.632;23.198;2023-02-28T05:36:49;92504.31;;;4.19;100.00
34506;BME280;20748;42.632;23.198;2023-02-28T05:39:21;92505.34;;;4.18;100.00
34506;BME280;20748;42.632;23.198;2023-02-28T05:41:55;92505.72;;;4.32;100.00
34506;BME280;20748;42.632;23.198;2023-02-28T05:44:27;92507.22;;;4.28;100.00
34506;BME280;20748;42.632;23.198;2023-02-28T05:46:59;92509.34;;;4.36;100.00
34506;BME280;20748;42.632;23.198;2023-02-28T05:49:32;92505.94;;;4.30;100.00
34506;BME280;20748;42.632;23.198;2023-02-28T05:52:04;92515.34;;;4.42;100.00
34506;BME280;20748;42.632;23.198;2023-02-28T05:54:36;92512.00;;;4.47;100.00
34506;BME280;20748;42.632;23.198;2023-02-28T05:57:09;92518.44;;;4.44;100.00
34506;BME280;20748;42.632;23.198;2023-02-28T05:59:55;92519.41;;;4.33;100.00
34506;BME280;20748;42.632;23.198;2023-02-28T06:02:27;92527.19;;;4.38;100.00
34506;BME280;20748;42.632;23.198;2023-02-28T06:05:00;92519.91;;;4.29;100.00
34506;BME280;20748;42.632;23.198;2023-02-28T06:07:33;92511.81;;;4.21;100.00
34506;BME280;20748;42.632;23.198;2023-02-28T06:10:06;92516.28;;;4.30;100.00
34506;BME280;20748;42.632;23.198;2023-02-28T06:12:40;92522.72;;;4.28;100.00
34506;BME280;20748;42.632;23.198;2023-02-28T06:15:14;92517.28;;;4.24;100.00
34506;BME280;20748;42.632;23.198;2023-02-28T06:17:46;92532.16;;;4.45;100.00
34506;BME280;20748;42.632;23.198;2023-02-28T06:20:19;92530.16;;;4.52;100.00
34506;BME280;20748;42.632;23.198;2023-02-28T06:22:51;92529.41;;;4.56;100.00
34506;BME280;20748;42.632;23.198;2023-02-28T06:25:26;92532.81;;;4.62;100.00
34506;BME280;20748;42.632;23.198;2023-02-28T06:27:59;92537.47;;;4.65;100.00
34506;BME280;20748;42.632;23.198;2023-02-28T06:30:32;92531.00;;;4.63;100.00
34506;BME280;20748;42.632;23.198;2023-02-28T06:33:05;92529.28;;;4.74;100.00
34506;BME280;20748;42.632;23.198;2023-02-28T06:35:37;92533.94;;;4.77;100.00
34506;BME280;20748;42.632;23.198;2023-02-28T06:38:10;92536.84;;;4.86;100.00
34506;BME280;20748;42.632;23.198;2023-02-28T06:40:42;92536.06;;;4.85;100.00
34506;BME280;20748;42.632;23.198;2023-02-28T06:43:16;92537.03;;;4.74;100.00
34506;BME280;20748;42.632;23.198;2023-02-28T06:45:48;92533.66;;;4.73;100.00
34506;BME280;20748;42.632;23.198;2023-02-28T06:48:21;92533.63;;;4.68;100.00
34506;BME280;20748;42.632;23.198;2023-02-28T06:51:01;92539.00;;;4.61;100.00
34506;BME280;20748;42.632;23.198;2023-02-28T06:53:34;92545.75;;;4.62;100.00
34506;BME280;20748;42.632;23.198;2023-02-28T06:56:08;92548.81;;;4.59;100.00
34506;BME280;20748;42.632;23.198;2023-02-28T06:58:46;92549.09;;;4.63;100.00
34506;BME280;20748;42.632;23.198;2023-02-28T07:01:19;92543.97;;;4.68;100.00
34506;BME280;20748;42.632;23.198;2023-02-28T07:03:52;92553.09;;;4.81;100.00
34506;BME280;20748;42.632;23.198;2023-02-28T07:06:24;92546.88;;;4.77;100.00
34506;BME280;20748;42.632;23.198;2023-02-28T07:08:56;92555.25;;;4.94;100.00
34506;BME280;20748;42.632;23.198;2023-02-28T07:11:29;92549.31;;;4.99;100.00
34506;BME280;20748;42.632;23.198;2023-02-28T07:14:02;92551.94;;;5.04;100.00
34506;BME280;20748;42.632;23.198;2023-02-28T07:16:35;92554.22;;;4.95;100.00
34506;BME280;20748;42.632;23.198;2023-02-28T07:19:08;92551.88;;;4.89;100.00
34506;BME280;20748;42.632;23.198;2023-02-28T07:21:40;92557.28;;;4.87;100.00
34506;BME280;20748;42.632;23.198;2023-02-28T07:24:12;92563.00;;;4.94;100.00
34506;BME280;20748;42.632;23.198;2023-02-28T07:26:47;92553.53;;;5.10;100.00
34506;BME280;20748;42.632;23.198;2023-02-28T07:29:20;92560.81;;;5.14;100.00
34506;BME280;20748;42.632;23.198;2023-02-28T07:31:52;92555.38;;;5.10;100.00
34506;BME280;20748;42.632;23.198;2023-02-28T07:34:25;92556.44;;;5.14;100.00
34506;BME280;20748;42.632;23.198;2023-02-28T07:36:58;92555.59;;;5.08;100.00
34506;BME280;20748;42.632;23.198;2023-02-28T07:39:30;92564.91;;;5.09;100.00
34506;BME280;20748;42.632;23.198;2023-02-28T07:42:04;92559.53;;;5.16;100.00
34506;BME280;20748;42.632;23.198;2023-02-28T07:44:39;92547.38;;;5.17;100.00
34506;BME280;20748;42.632;23.198;2023-02-28T07:47:12;92565.22;;;5.18;100.00
34506;BME280;20748;42.632;23.198;2023-02-28T07:49:45;92562.72;;;5.29;100.00
34506;BME280;20748;42.632;23.198;2023-02-28T07:52:17;92558.31;;;5.29;100.00
34506;BME280;20748;42.632;23.198;2023-02-28T07:54:49;92565.09;;;5.41;100.00
34506;BME280;20748;42.632;23.198;2023-02-28T07:57:22;92554.72;;;5.41;100.00
34506;BME280;20748;42.632;23.198;2023-02-28T07:59:55;92555.88;;;5.66;100.00
34506;BME280;20748;42.632;23.198;2023-02-28T08:02:27;92553.31;;;5.76;100.00
34506;BME280;20748;42.632;23.198;2023-02-28T08:05:00;92551.25;;;5.73;100.00
34506;BME280;20748;42.632;23.198;2023-02-28T08:07:33;92544.56;;;5.82;100.00
34506;BME280;20748;42.632;23.198;2023-02-28T08:10:06;92555.69;;;5.88;100.00
34506;BME280;20748;42.632;23.198;2023-02-28T08:12:40;92555.25;;;6.07;100.00
34506;BME280;20748;42.632;23.198;2023-02-28T08:15:13;92555.56;;;6.21;100.00
34506;BME280;20748;42.632;23.198;2023-02-28T08:17:45;92560.75;;;6.26;100.00
34506;BME280;20748;42.632;23.198;2023-02-28T08:20:18;92559.47;;;6.28;100.00
34506;BME280;20748;42.632;23.198;2023-02-28T08:22:50;92563.38;;;6.41;100.00
34506;BME280;20748;42.632;23.198;2023-02-28T08:25:23;92563.88;;;6.43;100.00
34506;BME280;20748;42.632;23.198;2023-02-28T08:27:55;92562.59;;;6.62;100.00
34506;BME280;20748;42.632;23.198;2023-02-28T08:30:28;92562.34;;;6.79;100.00
34506;BME280;20748;42.632;23.198;2023-02-28T08:33:01;92565.19;;;6.93;100.00
34506;BME280;20748;42.632;23.198;2023-02-28T08:35:35;92564.41;;;7.08;100.00
34506;BME280;20748;42.632;23.198;2023-02-28T08:38:08;92569.28;;;7.15;100.00
34506;BME280;20748;42.632;23.198;2023-02-28T08:40:40;92562.81;;;7.22;100.00
34506;BME280;20748;42.632;23.198;2023-02-28T08:43:13;92571.13;;;7.19;100.00
34506;BME280;20748;42.632;23.198;2023-02-28T08:45:46;92567.47;;;7.31;100.00
34506;BME280;20748;42.632;23.198;2023-02-28T08:48:18;92568.50;;;7.30;100.00
34506;BME280;20748;42.632;23.198;2023-02-28T08:50:57;92560.69;;;7.30;100.00
34506;BME280;20748;42.632;23.198;2023-02-28T08:53:39;92563.53;;;7.44;100.00
34506;BME280;20748;42.632;23.198;2023-02-28T08:56:13;92559.44;;;7.27;100.00
34506;BME280;20748;42.632;23.198;2023-02-28T08:58:48;92567.47;;;7.31;100.00
34506;BME280;20748;42.632;23.198;2023-02-28T09:01:23;92570.59;;;7.17;100.00
34506;BME280;20748;42.632;23.198;2023-02-28T09:03:57;92562.31;;;7.15;100.00
34506;BME280;20748;42.632;23.198;2023-02-28T09:06:29;92556.59;;;7.08;100.00
34506;BME280;20748;42.632;23.198;2023-02-28T09:09:03;92561.25;;;7.06;100.00
34506;BME280;20748;42.632;23.198;2023-02-28T09:11:37;92558.41;;;6.97;100.00
34506;BME280;20748;42.632;23.198;2023-02-28T09:14:10;92556.63;;;6.92;100.00
34506;BME280;20748;42.632;23.198;2023-02-28T09:16:43;92553.00;;;6.72;100.00
34506;BME280;20748;42.632;23.198;2023-02-28T09:19:15;92553.78;;;6.68;100.00
34506;BME280;20748;42.632;23.198;2023-02-28T09:21:48;92554.28;;;6.60;100.00
34506;BME280;20748;42.632;23.198;2023-02-28T09:24:20;92548.59;;;6.57;100.00
34506;BME280;20748;42.632;23.198;2023-02-28T09:26:52;92555.31;;;6.48;100.00
34506;BME280;20748;42.632;23.198;2023-02-28T09:29:35;92552.22;;;6.62;100.00
34506;BME280;20748;42.632;23.198;2023-02-28T09:32:08;92558.44;;;6.61;100.00
34506;BME280;20748;42.632;23.198;2023-02-28T09:34:41;92557.13;;;6.58;100.00
34506;BME280;20748;42.632;23.198;2023-02-28T09:37:13;92550.41;;;6.62;100.00
34506;BME280;20748;42.632;23.198;2023-02-28T09:39:46;92549.63;;;6.67;100.00
34506;BME280;20748;42.632;23.198;2023-02-28T09:42:21;92548.88;;;6.71;100.00
34506;BME280;20748;42.632;23.198;2023-02-28T09:44:58;92539.53;;;6.60;100.00
34506;BME280;20748;42.632;23.198;2023-02-28T09:47:36;92547.28;;;6.70;100.00
34506;BME280;20748;42.632;23.198;2023-02-28T09:50:17;92544.69;;;6.70;100.00
34506;BME280;20748;42.632;23.198;2023-02-28T09:52:53;92543.13;;;6.75;100.00
34506;BME280;20748;42.632;23.198;2023-02-28T09:55:29;92540.53;;;6.69;100.00
34506;BME280;20748;42.632;23.198;2023-02-28T09:58:18;92538.75;;;6.75;100.00
34506;BME280;20748;42.632;23.198;2023-02-28T10:01:00;92546.00;;;6.78;100.00
34506;BME280;20748;42.632;23.198;2023-02-28T10:03:39;92540.28;;;6.81;100.00
34506;BME280;20748;42.632;23.198;2023-02-28T10:06:14;92536.41;;;6.84;100.00
34506;BME280;20748;42.632;23.198;2023-02-28T10:08:56;92538.22;;;6.78;100.00
34506;BME280;20748;42.632;23.198;2023-02-28T10:11:33;92526.53;;;6.70;100.00
34506;BME280;20748;42.632;23.198;2023-02-28T10:14:11;92525.25;;;6.83;100.00
34506;BME280;20748;42.632;23.198;2023-02-28T10:16:46;92527.06;;;6.83;100.00
34506;BME280;20748;42.632;23.198;2023-02-28T10:19:27;92523.16;;;6.96;100.00
34506;BME280;20748;42.632;23.198;2023-02-28T10:22:11;92521.59;;;6.90;100.00
34506;BME280;20748;42.632;23.198;2023-02-28T10:24:45;92517.19;;;6.85;100.00
34506;BME280;20748;42.632;23.198;2023-02-28T10:27:20;92521.09;;;6.88;100.00
34506;BME280;20748;42.632;23.198;2023-02-28T10:29:54;92504.47;;;6.99;100.00
34506;BME280;20748;42.632;23.198;2023-02-28T10:32:30;92514.53;;;7.16;100.00
34506;BME280;20748;42.632;23.198;2023-02-28T10:35:15;92505.44;;;7.24;100.00
34506;BME280;20748;42.632;23.198;2023-02-28T10:37:50;92503.31;;;7.36;100.00
34506;BME280;20748;42.632;23.198;2023-02-28T10:40:30;92502.44;;;7.67;100.00
34506;BME280;20748;42.632;23.198;2023-02-28T10:43:04;92504.72;;;7.74;100.00
34506;BME280;20748;42.632;23.198;2023-02-28T10:45:37;92497.88;;;7.99;100.00
34506;BME280;20748;42.632;23.198;2023-02-28T10:48:27;92489.19;;;8.14;100.00
34506;BME280;20748;42.632;23.198;2023-02-28T10:51:03;92487.25;;;8.30;100.00
34506;BME280;20748;42.632;23.198;2023-02-28T10:53:44;92491.59;;;8.40;100.00
34506;BME280;20748;42.632;23.198;2023-02-28T10:56:32;92484.44;;;8.61;100.00
34506;BME280;20748;42.632;23.198;2023-02-28T10:59:27;92490.63;;;8.70;100.00
34506;BME280;20748;42.632;23.198;2023-02-28T11:02:00;92477.91;;;8.64;100.00
34506;BME280;20748;42.632;23.198;2023-02-28T11:04:35;92478.16;;;8.67;100.00
34506;BME280;20748;42.632;23.198;2023-02-28T11:07:18;92476.25;;;8.78;100.00
34506;BME280;20748;42.632;23.198;2023-02-28T11:09:55;92470.44;;;8.86;100.00
34506;BME280;20748;42.632;23.198;2023-02-28T11:12:37;92464.63;;;8.95;100.00
34506;BME280;20748;42.632;23.198;2023-02-28T11:15:25;92461.69;;;9.02;100.00
34506;BME280;20748;42.632;23.198;2023-02-28T11:18:00;92468.56;;;9.17;100.00
34506;BME280;20748;42.632;23.198;2023-02-28T11:20:34;92454.38;;;9.28;100.00
34506;BME280;20748;42.632;23.198;2023-02-28T11:23:12;92450.34;;;9.41;100.00
34506;BME280;20748;42.632;23.198;2023-02-28T11:25:49;92448.44;;;9.47;100.00
34506;BME280;20748;42.632;23.198;2023-02-28T11:28:28;92452.75;;;9.57;100.00
34506;BME280;20748;42.632;23.198;2023-02-28T11:31:04;92451.31;;;9.45;100.00
34506;BME280;20748;42.632;23.198;2023-02-28T11:33:42;92448.41;;;9.71;100.00
34506;BME280;20748;42.632;23.198;2023-02-28T11:36:19;92436.72;;;9.88;100.00
34506;BME280;20748;42.632;23.198;2023-02-28T11:38:54;92433.13;;;10.03;100.00
34506;BME280;20748;42.632;23.198;2023-02-28T11:41:41;92437.53;;;10.21;100.00
34506;BME280;20748;42.632;23.198;2023-02-28T11:44:27;92430.28;;;10.18;100.00
34506;BME280;20748;42.632;23.198;2023-02-28T11:47:08;92431.25;;;10.23;100.00
34506;BME280;20748;42.632;23.198;2023-02-28T11:49:47;92428.94;;;10.21;100.00
34506;BME280;20748;42.632;23.198;2023-02-28T11:52:30;92434.06;;;10.26;100.00
34506;BME280;20748;42.632;23.198;2023-02-28T11:55:15;92426.94;;;10.32;100.00
34506;BME280;20748;42.632;23.198;2023-02-28T11:58:05;92427.31;;;10.44;100.00
34506;BME280;20748;42.632;23.198;2023-02-28T12:03:56;92430.03;;;10.53;100.00
34506;BME280;20748;42.632;23.198;2023-02-28T12:06:33;92436.41;;;10.47;100.00
34506;BME280;20748;42.632;23.198;2023-02-28T12:09:20;92420.66;;;10.52;100.00
34506;BME280;20748;42.632;23.198;2023-02-28T12:12:06;92424.22;;;10.56;100.00
34506;BME280;20748;42.632;23.198;2023-02-28T12:17:45;92422.28;;;10.48;100.00
34506;BME280;20748;42.632;23.198;2023-02-28T12:20:26;92419.75;;;10.43;100.00
34506;BME280;20748;42.632;23.198;2023-02-28T12:23:18;92419.41;;;10.50;100.00
34506;BME280;20748;42.632;23.198;2023-02-28T12:26:00;92414.75;;;10.46;100.00
34506;BME280;20748;42.632;23.198;2023-02-28T12:28:39;92414.38;;;10.53;100.00
34506;BME280;20748;42.632;23.198;2023-02-28T12:31:17;92406.91;;;10.46;100.00
34506;BME280;20748;42.632;23.198;2023-02-28T12:33:52;92415.84;;;10.40;100.00
34506;BME280;20748;42.632;23.198;2023-02-28T12:36:26;92414.00;;;10.27;100.00
34506;BME280;20748;42.632;23.198;2023-02-28T12:39:03;92409.66;;;10.03;100.00
34506;BME280;20748;42.632;23.198;2023-02-28T12:41:41;92413.78;;;10.23;100.00
34506;BME280;20748;42.632;23.198;2023-02-28T12:44:19;92405.34;;;10.12;100.00
34506;BME280;20748;42.632;23.198;2023-02-28T12:46:56;92407.13;;;9.98;100.00
34506;BME280;20748;42.632;23.198;2023-02-28T12:49:34;92402.78;;;9.93;100.00
34506;BME280;20748;42.632;23.198;2023-02-28T12:52:11;92394.69;;;9.75;100.00
34506;BME280;20748;42.632;23.198;2023-02-28T12:54:51;92395.88;;;9.64;100.00
34506;BME280;20748;42.632;23.198;2023-02-28T12:57:33;92394.16;;;9.54;100.00
34506;BME280;20748;42.632;23.198;2023-02-28T13:00:13;92389.19;;;9.58;100.00
34506;BME280;20748;42.632;23.198;2023-02-28T13:03:02;92388.81;;;9.64;100.00
34506;BME280;20748;42.632;23.198;2023-02-28T13:09:03;92382.13;;;9.58;100.00
34506;BME280;20748;42.632;23.198;2023-02-28T13:11:41;92379.66;;;9.48;100.00
34506;BME280;20748;42.632;23.198;2023-02-28T13:14:24;92382.34;;;9.62;100.00
34506;BME280;20748;42.632;23.198;2023-02-28T13:17:09;92386.84;;;9.56;100.00
34506;BME280;20748;42.632;23.198;2023-02-28T13:19:44;92380.03;;;9.41;100.00
34506;BME280;20748;42.632;23.198;2023-02-28T13:22:20;92383.97;;;9.38;100.00
34506;BME280;20748;42.632;23.198;2023-02-28T13:24:53;92366.00;;;9.37;100.00
34506;BME280;20748;42.632;23.198;2023-02-28T13:27:35;92369.25;;;9.48;100.00
34506;BME280;20748;42.632;23.198;2023-02-28T13:33:23;92364.97;;;9.57;100.00
34506;BME280;20748;42.632;23.198;2023-02-28T13:36:21;92364.97;;;9.57;100.00
34506;BME280;20748;42.632;23.198;2023-02-28T13:38:55;92362.22;;;9.48;100.00
34506;BME280;20748;42.632;23.198;2023-02-28T13:41:46;92356.59;;;9.41;100.00
34506;BME280;20748;42.632;23.198;2023-02-28T13:44:20;92353.41;;;9.44;100.00
34506;BME280;20748;42.632;23.198;2023-02-28T13:47:24;92345.59;;;9.44;100.00
34506;BME280;20748;42.632;23.198;2023-02-28T13:50:22;92335.63;;;9.32;100.00
34506;BME280;20748;42.632;23.198;2023-02-28T13:55:53;92340.31;;;9.30;100.00
34506;BME280;20748;42.632;23.198;2023-02-28T13:58:41;92343.16;;;9.34;100.00